Time;durP1;ratioP1;P1;durP2;ratioP2;P2;SDS_P1;SDS_P2;PMS_P1;PMS_P2;Temp;Humidity;BMP_temperature;BMP_pressure;BME280_temperature;BME280_humidity;BME280_pressure;Samples;Min_cycle;Max_cycle;Signal;HPM_P1;HPM_P2
2023/07/02 00:00:08;;;;;;;;;;;16.50;99.90;;;;;;5055982;28;20023;-78
2023/07/02 00:02:33;;;;;;;;;;;16.50;99.90;;;;;;5073863;28;20567;-76
2023/07/02 00:04:59;;;;;;;;;;;16.40;99.90;;;;;;5074304;28;19916;-75
2023/07/02 00:07:27;;;;;;;;;;;16.40;99.90;;;;;;5072754;28;20307;-69
2023/07/02 00:09:53;;;;;;;;;;;16.30;99.90;;;;;;5056263;28;19913;-67
2023/07/02 00:12:19;;;;;;;;;;;16.30;99.90;;;;;;5074772;28;19912;-75
2023/07/02 00:14:44;;;;;;;;;;;16.20;99.90;;;;;;5071512;28;19917;-75
2023/07/02 00:17:13;;;;;;;;;;;16.10;99.90;;;;;;5041160;28;19920;-72
2023/07/02 00:19:41;;;;;;;;;;;16.10;99.90;;;;;;5054526;28;20371;-77
2023/07/02 00:22:10;;;;;;;;;;;16.10;99.90;;;;;;5073064;28;19928;-68
2023/07/02 00:24:36;;;;;;;;;;;16.10;99.90;;;;;;5074605;28;19954;-78
2023/07/02 00:27:01;;;;;;;;;;;16.10;99.90;;;;;;5049928;28;19971;-72
2023/07/02 00:29:27;;;;;;;;;;;16.10;99.90;;;;;;5072765;28;19913;-75
2023/07/02 00:31:53;;;;;;;;;;;16.00;99.90;;;;;;5056129;28;19928;-72
2023/07/02 00:34:18;;;;;;;;;;;16.00;99.90;;;;;;5072011;28;19942;-80
2023/07/02 00:36:44;;;;;;;;;;;16.00;99.90;;;;;;5074357;28;20020;-76
2023/07/02 00:39:11;;;;;;;;;;;16.00;99.90;;;;;;5074003;28;20350;-87
2023/07/02 00:41:37;;;;;;;;;;;16.00;99.90;;;;;;5059997;28;19924;-76
2023/07/02 00:44:03;;;;;;;;;;;16.00;99.90;;;;;;5074109;28;20219;-76
2023/07/02 00:46:30;;;;;;;;;;;16.00;99.90;;;;;;5053540;28;19919;-76
2023/07/02 00:48:55;;;;;;;;;;;16.00;99.90;;;;;;5074223;28;19916;-71
2023/07/02 00:51:25;;;;;;;;;;;15.90;99.90;;;;;;5072933;28;20357;-76
2023/07/02 00:53:52;;;;;;;;;;;15.90;99.90;;;;;;5073432;28;21505;-71
2023/07/02 00:56:18;;;;;;;;;;;15.80;99.90;;;;;;5069123;28;19912;-77
2023/07/02 00:58:50;;;;;;;;;;;15.70;99.90;;;;;;5055372;28;19928;-76
2023/07/02 01:01:17;;;;;;;;;;;15.70;99.90;;;;;;5074069;28;19924;-74
2023/07/02 01:03:53;;;;;;;;;;;15.60;99.90;;;;;;5062430;28;20216;-70
2023/07/02 01:06:24;;;;;;;;;;;15.60;99.90;;;;;;5067689;28;19916;-72
2023/07/02 01:08:51;;;;;;;;;;;15.50;99.90;;;;;;5071858;28;19916;-80
2023/07/02 01:11:17;;;;;;;;;;;15.50;99.90;;;;;;5074620;28;19909;-82
2023/07/02 01:13:44;;;;;;;;;;;15.50;99.90;;;;;;5074317;28;19908;-74
2023/07/02 01:16:10;;;;;;;;;;;15.50;99.90;;;;;;5074532;28;20016;-78
2023/07/02 01:18:38;;;;;;;;;;;15.50;99.90;;;;;;5074241;28;19916;-79
2023/07/02 01:21:06;;;;;;;;;;;15.40;99.90;;;;;;5059718;28;19958;-81
2023/07/02 01:23:32;;;;;;;;;;;15.50;99.90;;;;;;5051544;28;19909;-75
2023/07/02 01:25:59;;;;;;;;;;;15.50;99.90;;;;;;5074361;28;20327;-70
2023/07/02 01:28:26;;;;;;;;;;;15.50;99.90;;;;;;5073954;28;20408;-70
2023/07/02 01:30:51;;;;;;;;;;;15.50;99.90;;;;;;5074075;28;20334;-76
2023/07/02 01:33:17;;;;;;;;;;;15.50;99.90;;;;;;5074135;28;19909;-73
2023/07/02 01:35:42;;;;;;;;;;;15.50;99.90;;;;;;5077984;28;19919;-73
2023/07/02 01:38:08;;;;;;;;;;;15.50;99.90;;;;;;5078379;28;19909;-69
2023/07/02 01:40:34;;;;;;;;;;;15.40;99.90;;;;;;5076615;28;20369;-78
2023/07/02 01:42:59;;;;;;;;;;;15.40;99.90;;;;;;5076661;28;19920;-81
2023/07/02 01:45:25;;;;;;;;;;;15.40;99.90;;;;;;5075767;28;21435;-72
2023/07/02 01:47:51;;;;;;;;;;;15.30;99.90;;;;;;5075315;28;19920;-70
2023/07/02 01:50:16;;;;;;;;;;;15.30;99.90;;;;;;5076580;28;19912;-75
2023/07/02 01:52:42;;;;;;;;;;;15.40;99.90;;;;;;5055014;28;20007;-79
2023/07/02 01:55:08;;;;;;;;;;;15.40;99.90;;;;;;5059326;28;19919;-70
2023/07/02 01:57:33;;;;;;;;;;;15.40;99.90;;;;;;5076555;28;20005;-77
2023/07/02 01:59:59;;;;;;;;;;;15.30;99.90;;;;;;5075520;28;19921;-80
2023/07/02 02:02:25;;;;;;;;;;;15.30;99.90;;;;;;5040937;28;19931;-74
2023/07/02 02:04:50;;;;;;;;;;;15.30;99.90;;;;;;5076542;28;20006;-79
2023/07/02 02:07:16;;;;;;;;;;;15.20;99.90;;;;;;5075599;28;19916;-78
2023/07/02 02:09:41;;;;;;;;;;;15.20;99.90;;;;;;5076716;28;20338;-68
2023/07/02 02:12:07;;;;;;;;;;;15.20;99.90;;;;;;5075672;28;19912;-73
2023/07/02 02:14:33;;;;;;;;;;;15.20;99.90;;;;;;5076290;28;19999;-84
2023/07/02 02:16:58;;;;;;;;;;;15.20;99.90;;;;;;5076440;28;19908;-74
2023/07/02 02:19:24;;;;;;;;;;;15.20;99.90;;;;;;5076591;28;19917;-72
2023/07/02 02:21:49;;;;;;;;;;;15.10;99.90;;;;;;5075121;28;20018;-79
2023/07/02 02:24:15;;;;;;;;;;;15.10;99.90;;;;;;5075573;28;19952;-79
2023/07/02 02:26:41;;;;;;;;;;;15.10;99.90;;;;;;5074921;28;19936;-69
2023/07/02 02:29:07;;;;;;;;;;;15.00;99.90;;;;;;5065338;28;19916;-76
2023/07/02 02:31:33;;;;;;;;;;;15.00;99.90;;;;;;5073867;28;19912;-78
2023/07/02 02:33:59;;;;;;;;;;;15.00;99.90;;;;;;5077729;28;19999;-85
2023/07/02 02:36:24;;;;;;;;;;;15.00;99.90;;;;;;5060714;28;19913;-70
2023/07/02 02:38:50;;;;;;;;;;;15.00;99.90;;;;;;5077102;28;19956;-70
2023/07/02 02:41:15;;;;;;;;;;;15.00;99.90;;;;;;5076198;28;19955;-73
2023/07/02 02:43:42;;;;;;;;;;;15.00;99.90;;;;;;5076088;28;20231;-83
2023/07/02 02:46:08;;;;;;;;;;;15.00;99.90;;;;;;5076892;28;19909;-73
2023/07/02 02:48:33;;;;;;;;;;;15.00;99.90;;;;;;5074830;28;19920;-71
2023/07/02 02:50:59;;;;;;;;;;;15.00;99.90;;;;;;5075557;28;20189;-78
2023/07/02 02:53:24;;;;;;;;;;;15.00;99.90;;;;;;5076873;28;20350;-77
2023/07/02 02:55:50;;;;;;;;;;;15.00;99.90;;;;;;5076278;28;20345;-72
2023/07/02 02:58:15;;;;;;;;;;;14.90;99.90;;;;;;5076324;28;19929;-76
2023/07/02 03:00:45;;;;;;;;;;;14.90;99.90;;;;;;5076461;28;19912;-79
2023/07/02 03:03:12;;;;;;;;;;;14.80;99.90;;;;;;5071729;28;19923;-74
2023/07/02 03:05:38;;;;;;;;;;;14.80;99.90;;;;;;5076444;28;19915;-71
2023/07/02 03:08:03;;;;;;;;;;;14.80;99.90;;;;;;5075443;28;19912;-74
2023/07/02 03:10:29;;;;;;;;;;;14.80;99.90;;;;;;5074379;28;19995;-74
2023/07/02 03:12:54;;;;;;;;;;;14.70;99.90;;;;;;5075733;28;19917;-77
2023/07/02 03:15:20;;;;;;;;;;;14.80;99.90;;;;;;5076570;28;20334;-68
2023/07/02 03:17:46;;;;;;;;;;;14.80;99.90;;;;;;5075964;28;20254;-72
2023/07/02 03:20:11;;;;;;;;;;;14.80;99.90;;;;;;5056565;28;20222;-76
2023/07/02 03:22:37;;;;;;;;;;;14.80;99.90;;;;;;5057450;28;20014;-76
2023/07/02 03:25:02;;;;;;;;;;;14.80;99.90;;;;;;5076748;28;19908;-77
2023/07/02 03:27:28;;;;;;;;;;;14.90;99.90;;;;;;5075623;28;19912;-84
2023/07/02 03:29:53;;;;;;;;;;;14.90;99.90;;;;;;5070240;28;19912;-76
2023/07/02 03:32:19;;;;;;;;;;;14.80;99.90;;;;;;5076824;28;19908;-82
2023/07/02 03:34:44;;;;;;;;;;;14.80;99.90;;;;;;5076144;28;19912;-74
2023/07/02 03:37:10;;;;;;;;;;;14.70;99.90;;;;;;5075993;28;19948;-73
2023/07/02 03:39:36;;;;;;;;;;;14.60;99.90;;;;;;5075455;28;19955;-76
2023/07/02 03:42:01;;;;;;;;;;;14.60;99.90;;;;;;5058840;28;20311;-80
2023/07/02 03:44:27;;;;;;;;;;;14.50;99.90;;;;;;5074839;28;19915;-72
2023/07/02 03:46:52;;;;;;;;;;;14.50;99.90;;;;;;5074719;28;19966;-74
2023/07/02 03:49:18;;;;;;;;;;;14.40;99.90;;;;;;5076333;28;20033;-77
2023/07/02 03:51:43;;;;;;;;;;;14.40;99.90;;;;;;5075407;28;20300;-80
2023/07/02 03:54:09;;;;;;;;;;;14.40;99.90;;;;;;5075026;28;19919;-70
2023/07/02 03:56:35;;;;;;;;;;;14.40;99.90;;;;;;5075143;28;19913;-79
2023/07/02 03:59:00;;;;;;;;;;;14.30;99.90;;;;;;5075530;28;19947;-72
2023/07/02 04:01:26;;;;;;;;;;;14.30;99.90;;;;;;5073640;28;20022;-70
2023/07/02 04:03:52;;;;;;;;;;;14.30;99.90;;;;;;5075069;28;19912;-71
2023/07/02 04:06:18;;;;;;;;;;;14.30;99.90;;;;;;5057139;28;20015;-79
2023/07/02 04:08:43;;;;;;;;;;;14.20;99.90;;;;;;5057195;28;19912;-84
2023/07/02 04:11:10;;;;;;;;;;;14.20;99.90;;;;;;5057463;28;19908;-79
2023/07/02 04:13:35;;;;;;;;;;;14.10;99.90;;;;;;5057718;28;20322;-70
2023/07/02 04:16:01;;;;;;;;;;;14.20;99.90;;;;;;5074824;28;19921;-77
2023/07/02 04:18:29;;;;;;;;;;;14.20;99.90;;;;;;5051214;28;19912;-74
2023/07/02 04:20:55;;;;;;;;;;;14.30;99.90;;;;;;5073899;28;19912;-72
2023/07/02 04:23:20;;;;;;;;;;;14.30;99.90;;;;;;5073685;28;19913;-69
2023/07/02 04:25:46;;;;;;;;;;;14.40;99.90;;;;;;5074559;28;19943;-81
2023/07/02 04:28:11;;;;;;;;;;;14.50;99.90;;;;;;5075395;28;19908;-72
2023/07/02 04:30:37;;;;;;;;;;;14.50;99.90;;;;;;5074805;28;19934;-83
2023/07/02 04:33:02;;;;;;;;;;;14.70;99.90;;;;;;5074850;28;19912;-73
2023/07/02 04:35:28;;;;;;;;;;;14.70;99.90;;;;;;5071507;28;19913;-85
2023/07/02 04:37:54;;;;;;;;;;;14.70;99.90;;;;;;5075540;28;20358;-76
2023/07/02 04:40:19;;;;;;;;;;;14.80;99.90;;;;;;5075272;28;19912;-71
2023/07/02 04:42:46;;;;;;;;;;;14.80;99.90;;;;;;5074508;28;20481;-74
2023/07/02 04:45:14;;;;;;;;;;;14.90;99.90;;;;;;5073546;28;19920;-75
2023/07/02 04:47:39;;;;;;;;;;;14.90;99.90;;;;;;5067418;28;19919;-73
2023/07/02 04:50:05;;;;;;;;;;;14.90;99.90;;;;;;5074781;28;19913;-78
2023/07/02 04:52:31;;;;;;;;;;;14.90;99.90;;;;;;5055559;28;19927;-75
2023/07/02 04:54:57;;;;;;;;;;;15.00;99.90;;;;;;5074137;28;19916;-78
2023/07/02 04:57:22;;;;;;;;;;;15.00;99.90;;;;;;5074717;28;19919;-70
2023/07/02 04:59:50;;;;;;;;;;;15.10;99.90;;;;;;5074338;28;19929;-81
2023/07/02 05:02:15;;;;;;;;;;;15.10;99.90;;;;;;5055614;28;20283;-81
2023/07/02 05:04:41;;;;;;;;;;;15.10;99.90;;;;;;5075312;28;19944;-74
2023/07/02 05:07:06;;;;;;;;;;;15.20;99.90;;;;;;5073388;28;19974;-70
2023/07/02 05:09:32;;;;;;;;;;;15.20;99.90;;;;;;5057341;28;19919;-87
2023/07/02 05:11:58;;;;;;;;;;;15.30;99.90;;;;;;5078304;28;19912;-81
2023/07/02 05:14:23;;;;;;;;;;;15.30;99.90;;;;;;5078685;28;19916;-77
2023/07/02 05:16:49;;;;;;;;;;;15.40;99.90;;;;;;5060078;28;19920;-80
2023/07/02 05:19:15;;;;;;;;;;;15.40;99.90;;;;;;5060635;28;20326;-71
2023/07/02 05:21:40;;;;;;;;;;;15.50;99.90;;;;;;5078715;28;19920;-73
2023/07/02 05:24:08;;;;;;;;;;;15.50;99.90;;;;;;5065597;28;19916;-79
2023/07/02 05:26:34;;;;;;;;;;;15.50;99.90;;;;;;5077383;28;19916;-79
2023/07/02 05:29:00;;;;;;;;;;;15.50;99.90;;;;;;5077875;28;20250;-70
2023/07/02 05:31:25;;;;;;;;;;;15.60;99.90;;;;;;5079117;28;19908;-74
2023/07/02 05:33:51;;;;;;;;;;;15.60;99.90;;;;;;5078752;28;20366;-79
2023/07/02 05:36:16;;;;;;;;;;;15.70;99.90;;;;;;5077594;28;19917;-72
2023/07/02 05:38:42;;;;;;;;;;;15.70;99.90;;;;;;5058205;28;19912;-78
2023/07/02 05:41:08;;;;;;;;;;;15.80;99.90;;;;;;5058514;28;19912;-81
2023/07/02 05:43:33;;;;;;;;;;;15.80;99.90;;;;;;5077901;28;20012;-77
2023/07/02 05:46:00;;;;;;;;;;;15.80;99.90;;;;;;5078085;28;19987;-79
2023/07/02 05:48:26;;;;;;;;;;;15.80;99.90;;;;;;5076777;28;19920;-66
2023/07/02 05:50:52;;;;;;;;;;;15.90;99.90;;;;;;5077306;28;19916;-81
2023/07/02 05:53:17;;;;;;;;;;;15.90;99.90;;;;;;5078036;28;19916;-72
2023/07/02 05:55:43;;;;;;;;;;;15.90;99.90;;;;;;5078678;28;19908;-74
2023/07/02 05:58:08;;;;;;;;;;;15.90;99.90;;;;;;5077861;28;20287;-72
2023/07/02 06:00:34;;;;;;;;;;;15.80;99.90;;;;;;5072191;28;19916;-77
2023/07/02 06:03:00;;;;;;;;;;;15.80;99.90;;;;;;5058396;28;19916;-77
2023/07/02 06:05:26;;;;;;;;;;;15.90;99.90;;;;;;5078133;28;19912;-76
2023/07/02 06:07:51;;;;;;;;;;;15.90;99.90;;;;;;5077793;28;19912;-75
2023/07/02 06:10:17;;;;;;;;;;;16.00;99.90;;;;;;5076886;28;19909;-71
2023/07/02 06:12:43;;;;;;;;;;;16.10;99.90;;;;;;5078108;28;19915;-81
2023/07/02 06:15:09;;;;;;;;;;;16.10;99.90;;;;;;5077359;28;19913;-76
2023/07/02 06:17:35;;;;;;;;;;;16.20;99.90;;;;;;5058705;28;20219;-68
2023/07/02 06:20:04;;;;;;;;;;;16.20;99.90;;;;;;5077481;28;19915;-80
2023/07/02 06:22:30;;;;;;;;;;;16.20;99.90;;;;;;5046220;28;19913;-70
2023/07/02 06:24:56;;;;;;;;;;;16.20;99.90;;;;;;5077471;28;20548;-76
2023/07/02 06:27:21;;;;;;;;;;;16.20;99.90;;;;;;5076813;28;19920;-78
2023/07/02 06:29:47;;;;;;;;;;;16.20;99.90;;;;;;5077325;28;19981;-84
2023/07/02 06:32:12;;;;;;;;;;;16.30;99.90;;;;;;5077245;28;20279;-70
2023/07/02 06:34:38;;;;;;;;;;;16.30;99.90;;;;;;5077049;28;19909;-69
2023/07/02 06:37:04;;;;;;;;;;;16.30;99.90;;;;;;5076998;28;20011;-66
2023/07/02 06:39:30;;;;;;;;;;;16.30;99.90;;;;;;5076581;28;19931;-71
2023/07/02 06:41:55;;;;;;;;;;;16.30;99.90;;;;;;5059033;28;19912;-72
2023/07/02 06:44:21;;;;;;;;;;;16.40;99.90;;;;;;5077209;28;20230;-70
2023/07/02 06:46:47;;;;;;;;;;;16.40;99.90;;;;;;5076741;28;19951;-70
2023/07/02 06:49:13;;;;;;;;;;;16.40;99.90;;;;;;5077092;28;19940;-77
2023/07/02 06:51:38;;;;;;;;;;;16.50;99.90;;;;;;5060980;28;19963;-73
2023/07/02 06:54:04;;;;;;;;;;;16.60;99.90;;;;;;5076712;28;19923;-67
2023/07/02 06:56:32;;;;;;;;;;;16.50;99.90;;;;;;5077166;28;20329;-78
2023/07/02 06:58:58;;;;;;;;;;;16.60;99.90;;;;;;5076548;28;20062;-82
2023/07/02 07:01:23;;;;;;;;;;;16.70;99.90;;;;;;5076570;28;19995;-68
2023/07/02 07:03:49;;;;;;;;;;;16.80;99.90;;;;;;5076208;28;19927;-70
2023/07/02 07:06:15;;;;;;;;;;;16.70;99.90;;;;;;5068800;28;19923;-76
2023/07/02 07:08:41;;;;;;;;;;;16.60;99.90;;;;;;5074664;28;19913;-75
2023/07/02 07:11:07;;;;;;;;;;;16.60;99.90;;;;;;5073177;28;20225;-70
2023/07/02 07:13:33;;;;;;;;;;;16.60;99.90;;;;;;5055198;28;19909;-85
2023/07/02 07:15:59;;;;;;;;;;;16.70;99.90;;;;;;5057774;28;20422;-67
2023/07/02 07:18:25;;;;;;;;;;;16.80;99.90;;;;;;5075964;28;20227;-76
2023/07/02 07:20:52;;;;;;;;;;;16.90;99.90;;;;;;5074031;28;19912;-85
2023/07/02 07:23:18;;;;;;;;;;;17.00;99.90;;;;;;5057181;28;19913;-74
2023/07/02 07:25:44;;;;;;;;;;;17.10;99.90;;;;;;5074862;28;19950;-82
2023/07/02 07:28:15;;;;;;;;;;;17.10;99.90;;;;;;5074741;28;19908;-70
2023/07/02 07:30:41;;;;;;;;;;;17.00;99.90;;;;;;5074340;28;19931;-69
2023/07/02 07:33:10;;;;;;;;;;;16.90;99.90;;;;;;5074648;28;20006;-75
2023/07/02 07:35:36;;;;;;;;;;;17.00;99.90;;;;;;5075352;28;19999;-70
2023/07/02 07:38:03;;;;;;;;;;;17.00;99.90;;;;;;5075606;28;19987;-77
2023/07/02 07:40:29;;;;;;;;;;;16.90;99.90;;;;;;5074662;28;20070;-74
2023/07/02 07:42:55;;;;;;;;;;;16.90;99.90;;;;;;5075591;28;20011;-75
2023/07/02 07:45:21;;;;;;;;;;;16.80;99.90;;;;;;5075595;28;19912;-79
2023/07/02 07:47:47;;;;;;;;;;;16.80;99.90;;;;;;5072796;28;19958;-80
2023/07/02 07:50:16;;;;;;;;;;;16.90;99.90;;;;;;5072376;28;20264;-82
2023/07/02 07:52:45;;;;;;;;;;;17.10;99.90;;;;;;5075864;28;19909;-76
2023/07/02 07:55:14;;;;;;;;;;;17.40;99.90;;;;;;5074938;28;19935;-78
2023/07/02 07:57:39;;;;;;;;;;;17.50;99.90;;;;;;5075633;28;19912;-82
2023/07/02 08:00:11;;;;;;;;;;;17.50;99.90;;;;;;5057537;28;20337;-71
2023/07/02 08:02:37;;;;;;;;;;;17.60;99.90;;;;;;5075237;28;20254;-75
2023/07/02 08:05:03;;;;;;;;;;;17.70;99.90;;;;;;5075193;28;19935;-77
2023/07/02 08:07:29;;;;;;;;;;;17.70;99.90;;;;;;5075457;28;19943;-71
2023/07/02 08:09:54;;;;;;;;;;;17.80;99.90;;;;;;5075296;28;19909;-70
2023/07/02 08:12:20;;;;;;;;;;;17.90;99.90;;;;;;5074492;28;19947;-69
2023/07/02 08:14:46;;;;;;;;;;;18.10;99.90;;;;;;5053863;28;20253;-74
2023/07/02 08:17:11;;;;;;;;;;;18.30;99.90;;;;;;5074481;28;20325;-76
2023/07/02 08:19:37;;;;;;;;;;;18.40;99.90;;;;;;5074579;28;19913;-68
2023/07/02 08:22:02;;;;;;;;;;;18.60;99.90;;;;;;5075356;28;20253;-79
2023/07/02 08:24:30;;;;;;;;;;;18.70;99.90;;;;;;5074182;28;19912;-76
2023/07/02 08:26:57;;;;;;;;;;;18.70;99.90;;;;;;5074354;28;20005;-76
2023/07/02 08:29:23;;;;;;;;;;;18.50;99.90;;;;;;5074631;28;20323;-78
2023/07/02 08:31:49;;;;;;;;;;;18.70;99.90;;;;;;5053215;28;19921;-79
2023/07/02 08:34:15;;;;;;;;;;;18.70;99.90;;;;;;5074914;28;19962;-82
2023/07/02 08:36:43;;;;;;;;;;;18.70;99.90;;;;;;5074356;28;19963;-68
2023/07/02 08:39:09;;;;;;;;;;;18.90;99.90;;;;;;5074540;28;20248;-75
2023/07/02 08:41:47;;;;;;;;;;;19.00;99.90;;;;;;5056641;28;20007;-73
2023/07/02 08:44:14;;;;;;;;;;;18.90;99.90;;;;;;5072862;28;19912;-71
2023/07/02 08:46:41;;;;;;;;;;;18.90;99.90;;;;;;5073576;28;19928;-80
2023/07/02 08:49:07;;;;;;;;;;;18.80;99.90;;;;;;5051305;28;20030;-68
2023/07/02 08:51:32;;;;;;;;;;;19.00;99.90;;;;;;5070900;28;19915;-69
2023/07/02 08:53:58;;;;;;;;;;;19.00;99.90;;;;;;5075028;28;20241;-76
2023/07/02 08:56:24;;;;;;;;;;;19.20;99.90;;;;;;5074355;28;19912;-79
2023/07/02 08:58:49;;;;;;;;;;;19.40;99.90;;;;;;5073311;28;19920;-75
2023/07/02 09:01:15;;;;;;;;;;;19.70;99.90;;;;;;5073502;28;19916;-78
2023/07/02 09:03:41;;;;;;;;;;;19.60;99.90;;;;;;5073801;28;19966;-76
2023/07/02 09:06:08;;;;;;;;;;;19.40;99.90;;;;;;5074640;28;19916;-84
2023/07/02 09:08:34;;;;;;;;;;;19.20;99.90;;;;;;5071153;28;20291;-76
2023/07/02 09:22:25;;;;;;;12.02;2.22;;;18.40;99.90;;;;;;5109299;27;20446;-81
2023/07/02 09:24:57;;;;;;;8.77;3.13;;;18.60;99.90;;;;;;5102211;28;20024;-67
2023/07/02 09:27:41;;;;;;;6.97;2.00;;;18.70;99.90;;;;;;5085072;28;20028;-72
2023/07/02 09:30:18;;;;;;;5.57;2.22;;;18.90;99.90;;;;;;5090019;28;20456;-66
2023/07/02 09:32:45;;;;;;;5.30;2.35;;;19.00;99.90;;;;;;5085848;28;20028;-69
2023/07/02 09:35:11;;;;;;;;;;;19.00;99.90;;;;;;5091375;28;20039;-67
2023/07/02 09:37:38;;;;;;;6.75;1.98;;;19.20;99.90;;;;;;5085731;28;20014;-72
2023/07/02 09:40:08;;;;;;;4.15;2.15;;;19.60;99.90;;;;;;5080398;28;20020;-69
2023/07/02 09:42:35;;;;;;;5.80;2.08;;;19.60;99.90;;;;;;5105801;28;20024;-76
2023/07/02 09:45:02;;;;;;;6.68;2.35;;;19.50;99.90;;;;;;5090965;28;20021;-68
2023/07/02 09:47:31;;;;;;;8.18;2.00;;;19.40;99.90;;;;;;5087466;28;20027;-88
2023/07/02 09:50:08;;;;;;;10.48;2.30;;;19.20;99.90;;;;;;5090924;28;20033;-77
2023/07/02 09:52:35;;;;;;;7.13;2.10;;;19.30;99.90;;;;;;5081701;28;20025;-66
2023/07/02 09:55:01;;;;;;;9.95;2.40;;;19.60;99.90;;;;;;5085210;28;20115;-71
2023/07/02 09:57:31;;;;;;;8.35;2.88;;;19.80;99.90;;;;;;5086042;28;20037;-68
2023/07/02 09:59:58;;;;;;;9.90;1.80;;;20.20;99.90;;;;;;5090150;28;20035;-67
2023/07/02 10:02:24;;;;;;;7.20;2.05;;;20.40;99.90;;;;;;5084223;28;20480;-75
2023/07/02 10:04:54;;;;;;;6.13;1.58;;;20.50;99.90;;;;;;5098426;28;20021;-75
2023/07/02 10:07:29;;;;;;;5.53;1.90;;;20.40;99.90;;;;;;5089834;28;20024;-67
2023/07/02 10:09:56;;;;;;;8.00;2.10;;;20.10;99.90;;;;;;5083073;28;20103;-81
2023/07/02 10:12:23;;;;;;;2.95;1.52;;;20.00;99.90;;;;;;5084578;28;20025;-76
2023/07/02 10:14:52;;;;;;;5.95;2.33;;;19.80;99.90;;;;;;5080880;28;20017;-68
2023/07/02 10:17:30;;;;;;;7.07;1.77;;;19.90;99.90;;;;;;5079570;28;20032;-80
2023/07/02 10:20:11;;;;;;;4.20;1.58;;;20.00;99.90;;;;;;5083739;28;20043;-73
2023/07/02 10:22:44;;;;;;;4.38;1.95;;;20.20;99.90;;;;;;5074942;28;20092;-67
2023/07/02 10:25:10;;;;;;;5.22;1.35;;;20.40;99.90;;;;;;5084716;28;20023;-79
2023/07/02 10:27:42;;;;;;;7.75;1.85;;;20.70;99.90;;;;;;5075119;28;20078;-76
2023/07/02 10:30:10;;;;;;;8.68;1.75;;;20.50;99.90;;;;;;5085001;28;20021;-84
2023/07/02 10:32:37;;;;;;;9.27;1.80;;;20.40;99.90;;;;;;5078998;28;20032;-77
2023/07/02 10:35:17;;;;;;;4.47;1.45;;;20.30;99.90;;;;;;5069409;28;20321;-86
2023/07/02 10:37:44;;;;;;;6.43;2.08;;;20.10;99.90;;;;;;5071484;28;20024;-80
2023/07/02 10:40:11;;;;;;;7.95;1.85;;;20.20;99.90;;;;;;5067690;28;20029;-78
2023/07/02 10:42:52;;;;;;;4.82;1.88;;;20.00;99.90;;;;;;5064272;28;20047;-68
2023/07/02 10:45:19;;;;;;;7.93;2.55;;;20.20;99.90;;;;;;5060328;28;20021;-84
2023/07/02 10:47:45;;;;;;;;;;;20.40;99.90;;;;;;5057722;28;20032;-73
2023/07/02 10:50:21;;;;;;;7.10;1.70;;;20.60;99.90;;;;;;5072565;28;19979;-72
2023/07/02 10:52:50;;;;;;;4.22;1.83;;;20.50;99.90;;;;;;5065564;28;20029;-76
2023/07/02 10:55:23;;;;;;;6.82;2.40;;;20.30;99.90;;;;;;5066919;28;20029;-73
2023/07/02 10:57:51;;;;;;;7.15;2.05;;;20.50;99.90;;;;;;5062678;28;20082;-74
2023/07/02 11:00:17;;;;;;;8.07;2.83;;;20.80;99.90;;;;;;5066921;28;20441;-86
2023/07/02 11:02:43;;;;;;;;;;;20.70;99.90;;;;;;5065737;28;20035;-71
2023/07/02 11:05:12;;;;;;;6.57;2.28;;;20.60;99.90;;;;;;5068942;28;19904;-78
2023/07/02 11:07:42;;;;;;;3.10;1.77;;;20.30;99.90;;;;;;5068468;28;20441;-81
2023/07/02 11:10:09;;;;;;;4.40;2.42;;;19.90;99.90;;;;;;5070838;28;20028;-77
2023/07/02 11:12:36;;;;;;;7.80;2.30;;;19.70;99.90;;;;;;5076147;28;20023;-77
2023/07/02 11:15:13;;;;;;;3.92;1.95;;;19.60;99.90;;;;;;5075768;28;20337;-76
2023/07/02 11:17:42;;;;;;;7.68;1.70;;;19.70;99.90;;;;;;5072957;28;20070;-84
2023/07/02 11:20:09;;;;;;;4.75;1.73;;;19.70;99.90;;;;;;5074262;28;20074;-81
2023/07/02 11:22:35;;;;;;;;;;;19.80;99.90;;;;;;5073618;28;20052;-74
2023/07/02 11:25:16;;;;;;;;;;;20.00;99.90;;;;;;5076331;28;19977;-66
2023/07/02 11:27:42;;;;;;;5.38;2.42;;;20.00;99.90;;;;;;5075163;28;19915;-85
2023/07/02 11:30:08;;;;;;;7.50;1.92;;;19.90;99.90;;;;;;5060329;28;20029;-84
2023/07/02 11:32:50;;;;;;;8.55;2.80;;;19.70;99.90;;;;;;5067277;28;20021;-85
2023/07/02 11:35:17;;;;;;;5.85;2.47;;;19.50;99.90;;;;;;5071069;28;20415;-88
2023/07/02 11:37:44;;;;;;;9.80;2.05;;;19.30;99.90;;;;;;5064277;28;20036;-87
2023/07/02 11:40:11;;;;;;;3.55;1.92;;;19.20;99.90;;;;;;5064996;28;20056;-85
2023/07/02 11:42:37;;;;;;;6.30;2.40;;;19.40;99.90;;;;;;5065325;28;20080;-85
2023/07/02 11:45:03;;;;;;;4.40;1.90;;;19.50;99.90;;;;;;5054175;28;20021;-86
2023/07/02 11:47:29;;;;;;;7.03;1.98;;;19.40;99.90;;;;;;5066044;28;20035;-88
2023/07/02 11:49:55;;;;;;;4.20;2.45;;;19.30;99.90;;;;;;5070159;28;20043;-85
2023/07/02 11:52:21;;;;;;;4.00;1.87;;;19.50;99.90;;;;;;5076382;28;20020;-87
2023/07/02 11:54:49;;;;;;;5.72;1.85;;;19.50;99.90;;;;;;5076377;28;20020;-83
2023/07/02 11:57:14;;;;;;;6.85;2.20;;;19.40;99.90;;;;;;5076165;28;20029;-70
2023/07/02 11:59:41;;;;;;;5.90;2.70;;;19.30;99.90;;;;;;5074953;28;20024;-81
2023/07/02 12:02:07;;;;;;;5.35;2.25;;;19.20;99.90;;;;;;5076079;28;20049;-87
2023/07/02 12:04:32;;;;;;;6.57;2.40;;;19.20;99.90;;;;;;5076121;28;20407;-82
2023/07/02 12:07:01;;;;;;;3.63;1.63;;;19.20;99.90;;;;;;5071558;28;20021;-80
2023/07/02 12:09:27;;;;;;;4.03;1.95;;;19.10;99.90;;;;;;5064507;28;20666;-82
2023/07/02 12:11:53;;;;;;;6.22;2.40;;;19.00;99.90;;;;;;5063479;28;20037;-67
2023/07/02 12:14:20;;;;;;;5.73;1.93;;;18.90;99.90;;;;;;5062403;28;20415;-83
2023/07/02 12:16:45;;;;;;;;;;;19.00;99.90;;;;;;5061929;28;20020;-78
2023/07/02 12:19:11;;;;;;;9.45;2.72;;;19.20;99.90;;;;;;5069152;28;19912;-83
2023/07/02 12:21:37;;;;;;;4.00;2.63;;;19.60;99.90;;;;;;5063389;28;20040;-77
2023/07/02 12:24:08;;;;;;;7.33;2.30;;;20.00;99.90;;;;;;5061378;28;20024;-79
2023/07/02 12:26:34;;;;;;;3.95;2.17;;;20.30;99.90;;;;;;5064707;28;20347;-83
2023/07/02 12:28:59;;;;;;;5.63;2.27;;;20.70;99.90;;;;;;5068786;28;20104;-81
2023/07/02 12:31:25;;;;;;;14.03;2.33;;;21.00;99.90;;;;;;5062127;28;20584;-76
2023/07/02 12:33:51;;;;;;;10.47;2.67;;;21.00;99.90;;;;;;5068328;28;20024;-86
2023/07/02 12:36:17;;;;;;;5.17;2.37;;;20.90;99.90;;;;;;5078796;28;20423;-66
2023/07/02 12:38:43;;;;;;;6.60;2.30;;;21.00;99.90;;;;;;5055196;28;20083;-80
2023/07/02 12:41:09;;;;;;;9.02;2.70;;;21.30;99.80;;;;;;5064244;28;20060;-83
2023/07/02 12:43:37;;;;;;;5.20;2.13;;;21.30;99.20;;;;;;5080674;28;20056;-68
2023/07/02 12:46:06;;;;;;;4.93;1.75;;;21.50;99.30;;;;;;5066589;28;20024;-84
2023/07/02 12:48:34;;;;;;;5.70;2.38;;;21.70;98.70;;;;;;5084763;28;20383;-80
2023/07/02 12:51:02;;;;;;;5.55;2.55;;;21.60;98.50;;;;;;5064397;28;20096;-68
2023/07/02 12:53:28;;;;;;;7.93;2.95;;;21.70;99.30;;;;;;5073466;28;20028;-72
2023/07/02 12:55:54;;;;;;;5.30;2.92;;;21.70;99.50;;;;;;5069134;28;20027;-67
2023/07/02 12:58:22;;;;;;;3.97;2.25;;;21.40;99.20;;;;;;5069023;28;20041;-84
2023/07/02 13:00:48;;;;;;;5.32;2.03;;;21.30;99.70;;;;;;5071359;28;20029;-79
2023/07/02 13:03:17;;;;;;;7.07;2.37;;;21.50;99.90;;;;;;5063324;28;20060;-76
2023/07/02 13:05:46;;;;;;;9.30;3.00;;;21.70;99.00;;;;;;5067104;28;20020;-89
2023/07/02 13:08:12;;;;;;;5.50;2.55;;;21.90;97.80;;;;;;5069702;28;20024;-84
2023/07/02 13:10:37;;;;;;;7.38;2.30;;;22.00;97.30;;;;;;5082304;28;20032;-70
2023/07/02 13:13:03;;;;;;;7.20;2.63;;;22.00;97.90;;;;;;5071642;28;20353;-89
2023/07/02 13:15:29;;;;;;;5.03;2.03;;;22.10;97.60;;;;;;5063803;28;20250;-89
2023/07/02 13:17:55;;;;;;;8.20;2.83;;;22.20;98.80;;;;;;5064925;28;20299;-68
2023/07/02 13:20:21;;;;;;;6.97;2.43;;;22.20;98.50;;;;;;5070231;28;20603;-87
2023/07/02 13:22:47;;;;;;;4.73;2.37;;;21.90;97.50;;;;;;5072195;28;20339;-69
2023/07/02 13:25:12;;;;;;;5.00;2.80;;;21.90;98.60;;;;;;5069093;28;20029;-78
2023/07/02 13:27:38;;;;;;;6.50;2.60;;;21.90;98.70;;;;;;5074859;28;20363;-76
2023/07/02 13:30:06;;;;;;;9.70;2.38;;;22.00;97.70;;;;;;5060338;28;20017;-85
2023/07/02 13:32:32;;;;;;;9.80;2.80;;;21.90;98.10;;;;;;5077718;28;20028;-68
2023/07/02 13:34:58;;;;;;;5.37;2.50;;;22.00;99.20;;;;;;5061646;28;20437;-68
2023/07/02 13:37:24;;;;;;;5.28;2.33;;;22.00;96.30;;;;;;5054938;28;20261;-71
2023/07/02 13:39:50;;;;;;;5.40;2.00;;;21.70;97.10;;;;;;5054957;28;20029;-82
2023/07/02 13:42:16;;;;;;;5.25;2.78;;;21.70;98.10;;;;;;5067853;28;20094;-78
2023/07/02 13:44:42;;;;;;;3.22;2.17;;;21.60;97.00;;;;;;5055729;28;20032;-87
2023/07/02 13:47:08;;;;;;;7.70;2.88;;;21.40;98.40;;;;;;5068624;28;20029;-73
2023/07/02 13:49:34;;;;;;;6.32;2.97;;;21.40;99.90;;;;;;5055583;28;20411;-81
2023/07/02 13:52:00;;;;;;;8.43;2.63;;;21.30;98.60;;;;;;5067668;28;20027;-85
2023/07/02 13:54:26;;;;;;;7.18;2.15;;;21.10;98.10;;;;;;5075545;28;20021;-84